createdAt,value
2023-09-06T00:02:16.141Z,88.90
2023-09-06T00:04:56.630Z,88.91
2023-09-06T00:07:29.741Z,88.85
2023-09-06T00:10:05.884Z,88.85
2023-09-06T00:12:48.784Z,88.83
2023-09-06T00:15:45.167Z,88.86
2023-09-06T00:18:18.362Z,88.82
2023-09-06T00:21:11.142Z,88.81
2023-09-06T00:26:47.588Z,88.88
2023-09-06T00:29:33.958Z,89.12
2023-09-06T00:32:16.853Z,89.03
2023-09-06T00:35:11.228Z,88.87
2023-09-06T00:37:47.789Z,88.89
2023-09-06T00:40:31.680Z,88.90
2023-09-06T00:43:24.783Z,88.87
2023-09-06T00:46:18.428Z,89.08
2023-09-06T00:49:11.424Z,89.02
2023-09-06T00:51:48.019Z,89.01
2023-09-06T00:54:20.887Z,88.88
2023-09-06T00:56:57.112Z,89.01
2023-09-06T00:59:44.950Z,89.09
2023-09-06T01:02:20.813Z,89.04
2023-09-06T01:05:18.266Z,89.13
2023-09-06T01:08:17.439Z,89.16
2023-09-06T01:11:22.736Z,89.14
2023-09-06T01:14:01.164Z,89.30
2023-09-06T01:16:47.153Z,89.32
2023-09-06T01:19:21.227Z,89.37
2023-09-06T01:22:10.956Z,89.30
2023-09-06T01:24:58.392Z,89.44
2023-09-06T01:27:34.344Z,89.42
2023-09-06T01:30:33.610Z,89.40
2023-09-06T01:33:29.347Z,89.42
2023-09-06T01:36:22.432Z,89.44
2023-09-06T01:39:15.454Z,89.48
2023-09-06T01:42:09.529Z,89.52
2023-09-06T01:45:03.046Z,89.55
2023-09-06T01:47:56.434Z,89.61
2023-09-06T01:50:49.676Z,89.73
2023-09-06T01:53:43.017Z,89.71
2023-09-06T01:56:18.908Z,89.64
2023-09-06T01:59:11.802Z,89.63
2023-09-06T02:01:55.056Z,89.66
2023-09-06T02:04:27.706Z,89.68
2023-09-06T02:07:20.516Z,89.68
2023-09-06T02:10:15.987Z,89.74
2023-09-06T02:12:58.752Z,89.74
2023-09-06T02:15:31.779Z,89.68
2023-09-06T02:18:27.295Z,89.71
2023-09-06T02:21:10.504Z,89.75
2023-09-06T02:24:04.345Z,89.63
2023-09-06T02:26:49.044Z,89.59
2023-09-06T02:29:25.029Z,89.70
2023-09-06T02:32:08.536Z,89.76
2023-09-06T02:34:51.461Z,89.77
2023-09-06T02:37:26.909Z,89.80
2023-09-06T02:40:13.260Z,89.91
2023-09-06T02:43:06.792Z,89.91
2023-09-06T02:45:39.498Z,89.99
2023-09-06T02:48:23.204Z,90.00
2023-09-06T02:51:11.706Z,90.03
2023-09-06T02:53:47.197Z,90.09
2023-09-06T02:56:30.610Z,89.99
2023-09-06T02:59:08.828Z,90.11
2023-09-06T03:02:06.835Z,90.18
2023-09-06T03:05:05.534Z,90.32
2023-09-06T03:08:00.162Z,90.31
2023-09-06T03:10:36.308Z,90.23
2023-09-06T03:13:30.392Z,90.26
2023-09-06T03:16:05.947Z,90.35
2023-09-06T03:18:52.557Z,90.36
2023-09-06T03:21:49.028Z,90.39
2023-09-06T03:24:32.863Z,90.50
2023-09-06T03:27:09.148Z,90.38
2023-09-06T03:29:54.958Z,90.25
2023-09-06T03:32:49.868Z,90.17
2023-09-06T03:35:47.980Z,90.14
2023-09-06T03:38:40.875Z,90.11
2023-09-06T03:41:33.848Z,90.02
2023-09-06T03:44:29.241Z,89.99
2023-09-06T03:47:22.720Z,89.96
2023-09-06T03:50:19.175Z,89.99
2023-09-06T03:53:15.383Z,89.95
2023-09-06T03:56:12.059Z,89.96
2023-09-06T03:59:05.733Z,89.93
2023-09-06T04:02:01.811Z,90.10
2023-09-06T04:04:55.765Z,90.14
2023-09-06T04:07:49.452Z,90.27
2023-09-06T04:10:45.672Z,90.32
2023-09-06T04:13:40.621Z,90.45
2023-09-06T04:16:36.710Z,90.59
2023-09-06T04:19:29.669Z,90.73
2023-09-06T04:22:22.921Z,90.93
2023-09-06T04:25:13.154Z,90.97
2023-09-06T04:27:57.581Z,91.03
2023-09-06T04:30:53.012Z,91.00
2023-09-06T04:33:46.104Z,91.08
2023-09-06T04:36:32.976Z,91.14
2023-09-06T04:39:31.687Z,91.07
2023-09-06T04:42:26.979Z,90.99
2023-09-06T04:45:14.535Z,91.03
2023-09-06T04:48:11.694Z,90.98
2023-09-06T04:51:06.013Z,90.99
2023-09-06T04:54:01.546Z,91.00
2023-09-06T04:56:59.846Z,91.00
2023-09-06T04:59:52.991Z,90.95
2023-09-06T05:02:38.762Z,90.96
2023-09-06T05:05:32.012Z,91.00
2023-09-06T05:08:25.046Z,91.01
2023-09-06T05:11:12.224Z,91.01
2023-09-06T05:14:05.564Z,90.95
2023-09-06T05:17:01.927Z,91.08
2023-09-06T05:19:38.168Z,91.03
2023-09-06T05:22:31.063Z,90.92
2023-09-06T05:25:24.618Z,90.88
2023-09-06T05:28:13.809Z,90.81
2023-09-06T05:31:07.661Z,90.63
2023-09-06T05:34:00.679Z,90.54
2023-09-06T05:36:53.434Z,90.34
2023-09-06T05:39:38.968Z,90.20
2023-09-06T05:42:32.411Z,89.91
2023-09-06T05:45:27.677Z,89.65
2023-09-06T05:48:20.794Z,89.37
2023-09-06T05:51:13.939Z,89.02
2023-09-06T05:54:07.316Z,88.64
2023-09-06T05:57:00.142Z,88.32
2023-09-06T05:59:53.354Z,87.82
2023-09-06T06:02:46.549Z,87.57
2023-09-06T06:05:43.784Z,87.02
2023-09-06T06:08:29.559Z,86.71
2023-09-06T06:11:26.020Z,86.01
2023-09-06T06:14:18.830Z,85.68
2023-09-06T06:17:04.603Z,85.52
2023-09-06T06:19:57.435Z,84.76
2023-09-06T06:22:53.606Z,83.84
2023-09-06T06:25:46.763Z,83.47
2023-09-06T06:28:40.227Z,82.39
2023-09-06T06:31:34.022Z,81.62
2023-09-06T06:34:26.607Z,80.92
2023-09-06T06:37:19.943Z,80.53
2023-09-06T06:40:16.469Z,79.98
2023-09-06T06:43:02.847Z,79.54
2023-09-06T06:45:57.764Z,78.92
2023-09-06T06:48:30.781Z,78.48
2023-09-06T06:51:13.739Z,77.94
2023-09-06T06:54:09.735Z,76.76
2023-09-06T06:56:53.098Z,76.32
2023-09-06T06:59:46.736Z,76.33
2023-09-06T07:02:23.941Z,76.20
2023-09-06T07:05:07.113Z,75.88
2023-09-06T07:07:42.658Z,74.43
2023-09-06T07:10:19.501Z,74.05
2023-09-06T07:12:55.308Z,73.82
2023-09-06T07:15:48.708Z,73.76
2023-09-06T07:18:42.537Z,73.26
2023-09-06T07:21:29.650Z,73.18
2023-09-06T07:24:23.077Z,72.78
2023-09-06T07:27:08.966Z,73.18
2023-09-06T07:29:42.855Z,72.82
2023-09-06T07:32:15.840Z,72.23
2023-09-06T07:34:52.616Z,72.01
2023-09-06T07:37:26.235Z,70.90
2023-09-06T07:40:02.228Z,70.41
2023-09-06T07:42:41.311Z,70.19
2023-09-06T07:45:34.055Z,69.77
2023-09-06T07:48:07.528Z,68.62
2023-09-06T07:50:44.033Z,68.43
2023-09-06T07:53:20.156Z,67.68
2023-09-06T07:56:00.939Z,66.85
2023-09-06T07:58:33.965Z,66.32
2023-09-06T08:01:18.046Z,66.14
2023-09-06T08:03:52.431Z,65.74
2023-09-06T08:06:25.438Z,65.17
2023-09-06T08:08:59.555Z,64.84
2023-09-06T08:11:32.379Z,65.50
2023-09-06T08:14:05.313Z,65.08
2023-09-06T08:16:38.013Z,64.81
2023-09-06T08:19:10.858Z,63.02
2023-09-06T08:21:43.961Z,62.67
2023-09-06T08:24:26.959Z,63.96
2023-09-06T08:27:02.549Z,62.87
2023-09-06T08:29:49.492Z,62.35
2023-09-06T08:32:23.898Z,62.23
2023-09-06T08:35:07.424Z,61.88
2023-09-06T08:37:40.578Z,61.35
2023-09-06T08:40:14.409Z,61.21
2023-09-06T08:42:53.630Z,60.37
2023-09-06T08:45:49.485Z,60.30
2023-09-06T08:48:44.031Z,59.82
2023-09-06T08:51:22.223Z,58.89
2023-09-06T08:54:08.736Z,59.48
2023-09-06T08:56:47.105Z,60.08
2023-09-06T08:59:33.368Z,59.94
2023-09-06T09:02:28.976Z,60.57
2023-09-06T09:05:19.106Z,60.56
2023-09-06T09:08:01.118Z,60.64
2023-09-06T09:10:37.305Z,58.19
2023-09-06T09:13:21.089Z,57.22
2023-09-06T09:15:56.572Z,56.70
2023-09-06T09:18:33.246Z,57.64
2023-09-06T09:21:26.332Z,57.73
2023-09-06T09:24:06.805Z,57.10
2023-09-06T09:27:04.440Z,56.91
2023-09-06T09:29:59.486Z,58.53
2023-09-06T09:32:36.346Z,57.98
2023-09-06T09:35:30.132Z,57.23
2023-09-06T09:38:16.960Z,55.98
2023-09-06T09:41:12.227Z,55.69
2023-09-06T09:43:48.237Z,56.68
2023-09-06T09:46:37.264Z,55.68
2023-09-06T09:49:25.353Z,56.01
2023-09-06T09:52:18.941Z,54.88
2023-09-06T09:55:12.793Z,54.28
2023-09-06T09:58:06.653Z,53.26
2023-09-06T10:00:44.434Z,52.61
2023-09-06T10:03:43.896Z,52.06
2023-09-06T10:06:37.540Z,53.96
2023-09-06T10:09:22.459Z,53.98
2023-09-06T10:12:01.800Z,53.56
2023-09-06T10:14:54.845Z,53.15
2023-09-06T10:17:41.700Z,51.94
2023-09-06T10:20:36.213Z,51.67
2023-09-06T10:23:10.012Z,50.91
2023-09-06T10:26:05.337Z,51.95
2023-09-06T10:29:02.332Z,51.13
2023-09-06T10:31:50.353Z,52.08
2023-09-06T10:34:26.205Z,50.09
2023-09-06T10:37:09.274Z,50.70
2023-09-06T10:39:55.633Z,50.18
2023-09-06T10:42:39.510Z,50.25
2023-09-06T10:45:21.285Z,49.08
2023-09-06T10:47:54.613Z,48.52
2023-09-06T10:50:31.453Z,48.32
2023-09-06T10:53:06.905Z,46.65
2023-09-06T10:55:48.789Z,47.29
2023-09-06T10:58:26.405Z,48.30
2023-09-06T11:01:19.276Z,47.66
2023-09-06T11:03:55.612Z,48.44
2023-09-06T11:06:30.583Z,46.56
2023-09-06T11:09:12.179Z,47.98
2023-09-06T11:11:45.269Z,46.84
2023-09-06T11:14:19.065Z,47.32
2023-09-06T11:16:51.996Z,46.04
2023-09-06T11:19:32.337Z,45.10
2023-09-06T11:22:12.914Z,45.59
2023-09-06T11:24:46.381Z,46.24
2023-09-06T11:27:30.607Z,45.95
2023-09-06T11:30:12.231Z,46.63
2023-09-06T11:32:45.947Z,46.14
2023-09-06T11:35:21.064Z,44.56
2023-09-06T11:37:55.361Z,44.93
2023-09-06T11:40:29.775Z,44.19
2023-09-06T11:43:05.876Z,44.03
2023-09-06T11:45:41.766Z,44.64
2023-09-06T11:48:26.198Z,44.97
2023-09-06T11:51:04.872Z,44.67
2023-09-06T11:53:40.321Z,44.05
2023-09-06T11:56:16.645Z,43.91
2023-09-06T11:58:51.968Z,45.57
2023-09-06T12:01:26.166Z,45.28
2023-09-06T12:04:02.669Z,45.05
2023-09-06T12:06:42.914Z,44.84
2023-09-06T12:09:19.409Z,44.13
2023-09-06T12:11:52.791Z,44.22
2023-09-06T12:14:35.738Z,44.35
2023-09-06T12:17:22.298Z,45.55
2023-09-06T12:20:25.019Z,46.56
2023-09-06T12:23:10.684Z,44.70
2023-09-06T12:26:06.654Z,43.79
2023-09-06T12:29:03.120Z,43.92
2023-09-06T12:31:59.300Z,44.51
2023-09-06T12:34:49.072Z,44.79
2023-09-06T12:37:37.779Z,44.02
2023-09-06T12:40:32.360Z,43.65
2023-09-06T12:43:28.282Z,43.55
2023-09-06T12:46:22.952Z,42.88
2023-09-06T12:49:16.079Z,42.97
2023-09-06T12:51:49.497Z,42.56
2023-09-06T12:54:42.376Z,43.04
2023-09-06T12:57:36.132Z,42.95
2023-09-06T13:00:19.166Z,42.94
2023-09-06T13:03:14.807Z,42.80
2023-09-06T13:06:08.104Z,44.02
2023-09-06T13:08:45.028Z,44.16
2023-09-06T13:11:21.499Z,43.70
2023-09-06T13:13:59.006Z,45.08
2023-09-06T13:16:34.204Z,43.82
2023-09-06T13:19:27.299Z,43.03
2023-09-06T13:22:20.945Z,42.31
2023-09-06T13:25:15.203Z,41.70
2023-09-06T13:27:57.687Z,41.86
2023-09-06T13:30:35.853Z,42.91
2023-09-06T13:33:18.764Z,42.82
2023-09-06T13:36:11.601Z,43.04
2023-09-06T13:38:48.386Z,42.81
2023-09-06T13:41:41.522Z,43.69
2023-09-06T13:44:18.143Z,43.91
2023-09-06T13:47:05.441Z,43.49
2023-09-06T13:49:59.758Z,42.62
2023-09-06T13:52:45.660Z,43.06
2023-09-06T13:55:39.187Z,41.56
2023-09-06T13:58:17.110Z,41.48
2023-09-06T14:01:10.098Z,41.04
2023-09-06T14:04:03.094Z,41.75
2023-09-06T14:06:47.832Z,42.03
2023-09-06T14:09:30.279Z,41.76
2023-09-06T14:12:09.374Z,41.24
2023-09-06T14:15:03.020Z,41.66
2023-09-06T14:17:36.447Z,42.30
2023-09-06T14:20:12.822Z,41.78
2023-09-06T14:22:49.495Z,42.76
2023-09-06T14:25:22.900Z,43.08
2023-09-06T14:27:56.027Z,42.23
2023-09-06T14:30:43.738Z,42.62
2023-09-06T14:33:25.085Z,43.44
2023-09-06T14:36:04.852Z,42.96
2023-09-06T14:38:51.086Z,42.68
2023-09-06T14:41:37.992Z,43.76
2023-09-06T14:44:30.887Z,43.39
2023-09-06T14:47:12.989Z,42.98
2023-09-06T14:49:47.006Z,42.49
2023-09-06T14:52:28.893Z,42.45
2023-09-06T14:55:13.980Z,41.75
2023-09-06T14:57:54.500Z,42.13
2023-09-06T15:00:48.626Z,42.19
2023-09-06T15:03:25.455Z,42.45
2023-09-06T15:06:18.689Z,42.80
2023-09-06T15:09:16.561Z,42.63
2023-09-06T15:12:02.611Z,42.52
2023-09-06T15:14:56.270Z,42.32
2023-09-06T15:17:28.993Z,42.85
2023-09-06T15:20:14.311Z,43.25
2023-09-06T15:23:09.297Z,43.49
2023-09-06T15:25:45.862Z,42.95
2023-09-06T15:28:28.943Z,43.27
2023-09-06T15:31:06.465Z,42.87
2023-09-06T15:33:59.746Z,43.32
2023-09-06T15:36:54.316Z,43.06
2023-09-06T15:39:47.447Z,43.58
2023-09-06T15:42:40.832Z,43.77
2023-09-06T15:45:33.620Z,44.05
2023-09-06T15:48:19.861Z,44.52
2023-09-06T15:51:02.836Z,44.91
2023-09-06T15:53:55.693Z,45.33
2023-09-06T15:56:51.284Z,45.60
2023-09-06T15:59:46.288Z,45.71
2023-09-06T16:02:21.513Z,46.04
2023-09-06T16:05:14.963Z,46.66
2023-09-06T16:08:09.495Z,47.28
2023-09-06T16:11:02.589Z,48.19
2023-09-06T16:13:46.002Z,47.74
2023-09-06T16:16:20.248Z,47.78
2023-09-06T16:19:13.182Z,48.56
2023-09-06T16:21:48.551Z,49.40
2023-09-06T16:24:32.788Z,49.71
2023-09-06T16:27:15.502Z,49.55
2023-09-06T16:29:52.306Z,49.10
2023-09-06T16:32:45.565Z,49.11
2023-09-06T16:35:19.011Z,49.51
2023-09-06T16:37:54.995Z,50.29
2023-09-06T16:40:28.439Z,50.68
2023-09-06T16:43:21.457Z,51.65
2023-09-06T16:46:15.764Z,52.44
2023-09-06T16:49:08.973Z,53.25
2023-09-06T16:51:45.761Z,54.64
2023-09-06T16:54:39.431Z,55.05
2023-09-06T16:57:32.550Z,55.80
2023-09-06T17:00:18.966Z,56.61
2023-09-06T17:03:11.902Z,57.63
2023-09-06T17:06:04.904Z,58.33
2023-09-06T17:08:58.580Z,59.95
2023-09-06T17:11:51.355Z,60.45
2023-09-06T17:14:44.641Z,61.31
2023-09-06T17:17:38.094Z,62.19
2023-09-06T17:20:31.063Z,63.03
2023-09-06T17:23:24.197Z,63.43
2023-09-06T17:26:10.349Z,63.81
2023-09-06T17:28:55.593Z,64.18
2023-09-06T17:31:38.915Z,64.75
2023-09-06T17:34:33.909Z,65.33
2023-09-06T17:37:26.298Z,65.59
2023-09-06T17:39:59.149Z,66.18
2023-09-06T17:42:43.079Z,67.01
2023-09-06T17:45:38.637Z,67.50
2023-09-06T17:48:28.148Z,68.25
2023-09-06T17:51:14.114Z,68.96
2023-09-06T17:54:03.740Z,69.15
2023-09-06T17:56:56.654Z,69.65
2023-09-06T17:59:31.269Z,70.00
2023-09-06T18:02:20.847Z,70.45
2023-09-06T18:05:05.434Z,71.06
2023-09-06T18:07:58.274Z,71.32
2023-09-06T18:10:52.784Z,72.06
2023-09-06T18:13:32.735Z,72.72
2023-09-06T18:16:19.447Z,73.04
2023-09-06T18:19:05.695Z,73.63
2023-09-06T18:21:58.644Z,74.12
2023-09-06T18:24:34.086Z,74.98
2023-09-06T18:27:27.925Z,74.97
2023-09-06T18:30:25.792Z,75.39
2023-09-06T18:33:20.987Z,76.09
2023-09-06T18:35:56.004Z,76.52
2023-09-06T18:38:30.317Z,76.61
2023-09-06T18:41:11.321Z,77.18
2023-09-06T18:43:48.377Z,77.29
2023-09-06T18:46:21.092Z,77.50
2023-09-06T18:49:15.494Z,77.66
2023-09-06T18:51:48.418Z,78.04
2023-09-06T18:54:21.320Z,78.35
2023-09-06T18:56:54.242Z,78.57
2023-09-06T18:59:40.772Z,78.71
2023-09-06T19:02:24.609Z,79.00
2023-09-06T19:05:23.109Z,79.49
2023-09-06T19:08:16.959Z,79.62
2023-09-06T19:10:52.796Z,79.97
2023-09-06T19:13:26.016Z,80.23
2023-09-06T19:16:11.115Z,80.29
2023-09-06T19:18:46.775Z,80.69
2023-09-06T19:21:40.099Z,80.79
2023-09-06T19:24:12.696Z,81.25
2023-09-06T19:27:02.470Z,81.33
2023-09-06T19:29:35.219Z,81.50
2023-09-06T19:32:08.563Z,81.61
2023-09-06T19:34:50.284Z,81.65
2023-09-06T19:37:26.342Z,81.81
2023-09-06T19:40:10.675Z,81.92
2023-09-06T19:43:03.353Z,82.09
2023-09-06T19:45:36.600Z,82.33
2023-09-06T19:48:10.222Z,82.42
2023-09-06T19:51:05.361Z,82.41
2023-09-06T19:53:38.259Z,82.75
2023-09-06T19:56:16.280Z,82.90
2023-09-06T19:59:00.824Z,82.98
2023-09-06T20:01:42.615Z,83.00
2023-09-06T20:04:19.146Z,83.24
2023-09-06T20:06:54.270Z,83.42
2023-09-06T20:09:29.300Z,83.50
2023-09-06T20:12:02.349Z,83.66
2023-09-06T20:14:34.979Z,83.78
2023-09-06T20:17:19.042Z,83.84
2023-09-06T20:19:51.789Z,83.98
2023-09-06T20:22:26.601Z,84.04
2023-09-06T20:25:12.392Z,84.18
2023-09-06T20:28:05.596Z,84.22
2023-09-06T20:30:42.372Z,84.66
2023-09-06T20:33:35.755Z,84.72
2023-09-06T20:36:17.152Z,84.77
2023-09-06T20:38:50.470Z,84.80
2023-09-06T20:41:23.402Z,84.86
2023-09-06T20:43:58.952Z,85.12
2023-09-06T20:46:33.470Z,85.32
2023-09-06T20:49:26.777Z,85.47
2023-09-06T20:52:19.877Z,85.52
2023-09-06T20:55:14.515Z,85.44
2023-09-06T20:57:56.969Z,85.55
2023-09-06T21:00:40.605Z,85.60
2023-09-06T21:03:25.536Z,85.85
2023-09-06T21:06:08.669Z,85.82
2023-09-06T21:09:02.050Z,85.89
2023-09-06T21:11:53.591Z,86.00
2023-09-06T21:14:46.676Z,86.11
2023-09-06T21:17:39.995Z,86.30
2023-09-06T21:20:25.085Z,86.57
2023-09-06T21:23:17.990Z,86.84
2023-09-06T21:26:13.208Z,86.81
2023-09-06T21:29:14.715Z,86.63
2023-09-06T21:32:15.036Z,86.51
2023-09-06T21:35:08.575Z,86.60
2023-09-06T21:38:01.654Z,86.59
2023-09-06T21:40:35.200Z,86.61
2023-09-06T21:43:29.018Z,86.69
2023-09-06T21:46:20.711Z,86.82
2023-09-06T21:49:13.958Z,87.30
2023-09-06T21:52:07.318Z,87.48
2023-09-06T21:55:00.482Z,87.42
2023-09-06T21:58:08.146Z,87.65
2023-09-06T22:01:03.234Z,87.52
2023-09-06T22:03:54.372Z,87.55
2023-09-06T22:06:47.351Z,87.53
2023-09-06T22:09:38.282Z,87.48
2023-09-06T22:12:29.398Z,87.65
2023-09-06T22:15:22.322Z,87.60
2023-09-06T22:18:15.120Z,87.59
2023-09-06T22:21:08.641Z,87.67
2023-09-06T22:24:01.547Z,87.63
2023-09-06T22:26:54.217Z,87.56
2023-09-06T22:29:47.144Z,87.66
2023-09-06T22:32:40.652Z,87.65
2023-09-06T22:35:33.609Z,87.79
2023-09-06T22:38:26.552Z,88.10
2023-09-06T22:41:19.393Z,88.01
2023-09-06T22:44:12.164Z,88.07
2023-09-06T22:47:04.988Z,88.16
2023-09-06T22:49:57.645Z,88.35
2023-09-06T22:52:50.699Z,88.21
2023-09-06T22:55:43.667Z,88.15
2023-09-06T22:58:36.253Z,88.14
2023-09-06T23:01:29.128Z,88.23
2023-09-06T23:04:22.001Z,88.42
2023-09-06T23:07:16.483Z,88.38
2023-09-06T23:10:11.757Z,88.45
2023-09-06T23:12:45.726Z,88.48
2023-09-06T23:15:40.363Z,88.39
2023-09-06T23:18:39.937Z,88.54
2023-09-06T23:21:39.871Z,88.61
2023-09-06T23:24:36.922Z,88.36
2023-09-06T23:27:30.975Z,88.56
2023-09-06T23:30:25.887Z,88.67
2023-09-06T23:33:26.138Z,88.73
2023-09-06T23:36:18.946Z,88.56
2023-09-06T23:39:13.057Z,88.55
2023-09-06T23:42:27.325Z,88.69
2023-09-06T23:45:24.759Z,88.56
2023-09-06T23:48:17.920Z,88.66
2023-09-06T23:51:11.499Z,88.77
2023-09-06T23:53:54.383Z,88.74
2023-09-06T23:56:47.384Z,88.67
2023-09-06T23:59:39.693Z,88.66
